createdAt,value
2023-10-18T00:01:58.719Z,2.53
2023-10-18T00:04:25.426Z,2.56
2023-10-18T00:06:55.275Z,2.59
2023-10-18T00:09:41.586Z,2.63
2023-10-18T00:12:08.785Z,2.67
2023-10-18T00:14:36.169Z,2.70
2023-10-18T00:17:02.884Z,2.73
2023-10-18T00:19:29.895Z,2.75
2023-10-18T00:21:56.793Z,2.77
2023-10-18T00:24:23.591Z,2.79
2023-10-18T00:26:52.025Z,2.80
2023-10-18T00:29:18.717Z,2.81
2023-10-18T00:31:45.321Z,2.81
2023-10-18T00:34:12.892Z,2.81
2023-10-18T00:36:40.843Z,2.81
2023-10-18T00:39:42.939Z,2.80
2023-10-18T00:42:28.773Z,2.80
2023-10-18T00:45:09.756Z,2.79
2023-10-18T00:47:36.613Z,2.76
2023-10-18T00:50:04.375Z,2.74
2023-10-18T00:52:31.233Z,2.71
2023-10-18T00:54:58.479Z,2.69
2023-10-18T00:57:35.774Z,2.68
2023-10-18T01:00:13.432Z,2.66
2023-10-18T01:02:44.709Z,2.66
2023-10-18T01:05:16.471Z,2.66
2023-10-18T01:07:43.900Z,2.67
2023-10-18T01:10:13.042Z,2.68
2023-10-18T01:12:39.840Z,2.68
2023-10-18T01:15:07.596Z,2.68
2023-10-18T01:17:36.811Z,2.68
2023-10-18T01:20:26.563Z,2.69
2023-10-18T01:22:53.200Z,2.68
2023-10-18T01:25:19.973Z,2.68
2023-10-18T01:27:46.757Z,2.68
2023-10-18T01:30:17.557Z,2.68
2023-10-18T01:32:44.810Z,2.67
2023-10-18T01:35:16.129Z,2.65
2023-10-18T01:37:44.104Z,2.62
2023-10-18T01:40:22.029Z,2.59
2023-10-18T01:42:58.763Z,2.57
2023-10-18T01:45:37.789Z,2.56
2023-10-18T01:48:10.830Z,2.57
2023-10-18T01:50:39.824Z,2.58
2023-10-18T01:53:16.279Z,2.58
2023-10-18T01:55:47.676Z,2.59
2023-10-18T01:58:14.580Z,2.59
2023-10-18T02:00:42.627Z,2.58
2023-10-18T02:03:13.311Z,2.57
2023-10-18T02:05:44.008Z,2.57
2023-10-18T02:08:12.203Z,2.56
2023-10-18T02:10:41.423Z,2.56
2023-10-18T02:13:14.419Z,2.54
2023-10-18T02:15:41.566Z,2.53
2023-10-18T02:18:09.358Z,2.52
2023-10-18T02:20:38.540Z,2.50
2023-10-18T02:23:11.672Z,2.49
2023-10-18T02:25:44.936Z,2.49
2023-10-18T02:28:27.852Z,2.48
2023-10-18T02:31:11.004Z,2.46
2023-10-18T02:33:37.681Z,2.45
2023-10-18T02:36:28.175Z,2.44
2023-10-18T02:38:55.150Z,2.42
2023-10-18T02:41:21.848Z,2.42
2023-10-18T02:43:51.752Z,2.41
2023-10-18T02:46:21.670Z,2.40
2023-10-18T02:48:50.934Z,2.41
2023-10-18T02:51:22.808Z,2.39
2023-10-18T02:53:51.893Z,2.37
2023-10-18T02:56:21.273Z,2.36
2023-10-18T02:58:48.650Z,2.36
2023-10-18T03:01:15.485Z,2.35
2023-10-18T03:03:47.193Z,2.34
2023-10-18T03:06:14.706Z,2.31
2023-10-18T03:08:49.810Z,2.30
2023-10-18T03:11:20.902Z,2.27
2023-10-18T03:13:51.873Z,2.24
2023-10-18T03:16:39.375Z,2.23
2023-10-18T03:19:13.128Z,2.22
2023-10-18T03:21:48.653Z,2.21
2023-10-18T03:24:15.450Z,2.18
2023-10-18T03:26:43.858Z,2.17
2023-10-18T03:29:13.174Z,2.16
2023-10-18T03:31:44.835Z,2.16
2023-10-18T03:34:23.087Z,2.14
2023-10-18T03:36:49.707Z,2.14
2023-10-18T03:39:16.428Z,2.13
2023-10-18T03:41:50.469Z,2.12
2023-10-18T03:44:32.969Z,2.11
2023-10-18T03:47:12.474Z,2.10
2023-10-18T03:49:39.371Z,2.10
2023-10-18T03:52:27.040Z,2.09
2023-10-18T03:54:56.532Z,2.08
2023-10-18T03:57:29.745Z,2.07
2023-10-18T03:59:59.208Z,2.07
2023-10-18T04:02:26.185Z,2.07
2023-10-18T04:04:58.934Z,2.08
2023-10-18T04:07:27.307Z,2.10
2023-10-18T04:09:54.604Z,2.12
2023-10-18T04:12:22.746Z,2.13
2023-10-18T04:14:53.120Z,2.15
2023-10-18T04:17:35.513Z,2.16
2023-10-18T04:20:12.905Z,2.18
2023-10-18T04:22:39.436Z,2.21
2023-10-18T04:25:14.894Z,2.23
2023-10-18T04:27:43.139Z,2.24
2023-10-18T04:30:12.976Z,2.25
2023-10-18T04:32:39.907Z,2.26
2023-10-18T04:35:11.177Z,2.25
2023-10-18T04:37:38.121Z,2.26
2023-10-18T04:40:07.219Z,2.25
2023-10-18T04:42:34.125Z,2.24
2023-10-18T04:45:16.766Z,2.23
2023-10-18T04:47:43.470Z,2.22
2023-10-18T04:50:12.836Z,2.21
2023-10-18T04:52:42.651Z,2.20
2023-10-18T04:55:15.255Z,2.20
2023-10-18T04:57:42.509Z,2.20
2023-10-18T05:00:35.230Z,2.19
2023-10-18T05:03:08.260Z,2.19
2023-10-18T05:05:44.974Z,2.18
2023-10-18T05:08:17.354Z,2.16
2023-10-18T05:10:47.262Z,2.16
2023-10-18T05:13:34.347Z,2.14
2023-10-18T05:16:02.382Z,2.12
2023-10-18T05:18:30.835Z,2.09
2023-10-18T05:20:58.835Z,2.08
2023-10-18T05:23:33.367Z,2.06
2023-10-18T05:26:09.501Z,2.05
2023-10-18T05:29:01.660Z,2.04
2023-10-18T05:31:47.090Z,2.04
2023-10-18T05:34:17.005Z,2.03
2023-10-18T05:36:46.492Z,2.03
2023-10-18T05:39:26.156Z,2.03
2023-10-18T05:42:00.601Z,2.06
2023-10-18T05:44:30.145Z,2.09
2023-10-18T05:46:57.824Z,2.13
2023-10-18T05:49:26.723Z,2.15
2023-10-18T05:52:15.389Z,2.20
2023-10-18T05:54:44.341Z,2.27
2023-10-18T05:57:16.566Z,2.33
2023-10-18T05:59:46.684Z,2.41
2023-10-18T06:02:23.655Z,2.48
2023-10-18T06:04:52.375Z,2.56
2023-10-18T06:07:23.720Z,2.64
2023-10-18T06:09:56.424Z,2.73
2023-10-18T06:12:24.193Z,2.82
2023-10-18T06:14:54.435Z,2.91
2023-10-18T06:17:27.425Z,3.01
2023-10-18T06:19:57.281Z,3.12
2023-10-18T06:22:29.950Z,3.22
2023-10-18T06:25:01.429Z,3.34
2023-10-18T06:27:30.505Z,3.44
2023-10-18T06:29:56.981Z,3.55
2023-10-18T06:32:25.676Z,3.65
2023-10-18T06:34:58.226Z,3.74
2023-10-18T06:37:25.500Z,3.85
2023-10-18T06:39:58.976Z,3.95
2023-10-18T06:42:27.636Z,4.05
2023-10-18T06:44:56.083Z,4.14
2023-10-18T06:47:31.430Z,4.25
2023-10-18T06:50:11.741Z,4.35
2023-10-18T06:52:53.218Z,4.46
2023-10-18T06:55:22.060Z,4.57
2023-10-18T06:57:50.466Z,4.68
2023-10-18T07:00:17.267Z,4.78
2023-10-18T07:02:45.260Z,4.88
2023-10-18T07:05:16.828Z,5.00
2023-10-18T07:07:43.393Z,5.10
2023-10-18T07:10:20.755Z,5.22
2023-10-18T07:12:53.004Z,5.35
2023-10-18T07:15:23.609Z,5.46
2023-10-18T07:17:52.713Z,5.58
2023-10-18T07:20:21.807Z,5.70
2023-10-18T07:22:55.336Z,5.82
2023-10-18T07:25:29.743Z,5.94
2023-10-18T07:27:57.318Z,6.07
2023-10-18T07:30:39.314Z,6.19
2023-10-18T07:33:12.796Z,6.32
2023-10-18T07:35:44.897Z,6.44
2023-10-18T07:38:11.835Z,6.56
2023-10-18T07:40:44.787Z,6.68
2023-10-18T07:43:15.585Z,6.79
2023-10-18T07:45:47.625Z,6.91
2023-10-18T07:48:17.427Z,7.05
2023-10-18T07:50:45.608Z,7.19
2023-10-18T07:53:12.273Z,7.32
2023-10-18T07:55:43.093Z,7.46
2023-10-18T07:58:22.801Z,7.58
2023-10-18T08:01:11.142Z,7.72
2023-10-18T08:03:39.084Z,7.85
2023-10-18T08:06:09.225Z,7.96
2023-10-18T08:08:42.479Z,8.06
2023-10-18T08:11:12.718Z,8.16
2023-10-18T08:13:48.423Z,8.25
2023-10-18T08:16:21.220Z,8.34
2023-10-18T08:18:53.710Z,8.42
2023-10-18T08:21:26.981Z,8.49
2023-10-18T08:23:57.851Z,8.55
2023-10-18T08:26:27.445Z,8.62
2023-10-18T08:28:54.460Z,8.70
2023-10-18T08:31:35.220Z,8.77
2023-10-18T08:34:06.506Z,8.85
2023-10-18T08:36:33.445Z,8.93
2023-10-18T08:39:02.235Z,9.00
2023-10-18T08:41:33.890Z,9.08
2023-10-18T08:44:16.756Z,9.16
2023-10-18T08:46:52.911Z,9.25
2023-10-18T08:49:23.106Z,9.32
2023-10-18T08:52:11.954Z,9.37
2023-10-18T08:54:43.159Z,9.41
2023-10-18T08:57:11.738Z,9.47
2023-10-18T08:59:52.484Z,9.51
2023-10-18T09:02:22.302Z,9.55
2023-10-18T09:04:56.594Z,9.59
2023-10-18T09:07:43.268Z,9.66
2023-10-18T09:10:33.861Z,9.74
2023-10-18T09:13:12.160Z,9.78
2023-10-18T09:15:59.588Z,9.82
2023-10-18T09:18:31.752Z,9.87
2023-10-18T09:21:08.018Z,9.92
2023-10-18T09:23:35.236Z,9.95
2023-10-18T09:26:14.904Z,9.97
2023-10-18T09:28:42.372Z,10.00
2023-10-18T09:31:18.557Z,10.01
2023-10-18T09:33:50.919Z,10.03
2023-10-18T09:36:26.202Z,10.06
2023-10-18T09:38:54.874Z,10.10
2023-10-18T09:41:21.876Z,10.15
2023-10-18T09:43:50.426Z,10.20
2023-10-18T09:46:17.459Z,10.24
2023-10-18T09:48:46.601Z,10.26
2023-10-18T09:51:15.738Z,10.29
2023-10-18T09:53:44.225Z,10.32
2023-10-18T09:56:13.535Z,10.36
2023-10-18T09:58:51.589Z,10.40
2023-10-18T10:01:31.937Z,10.44
2023-10-18T10:04:06.869Z,10.49
2023-10-18T10:06:36.101Z,10.52
2023-10-18T10:09:12.034Z,10.56
2023-10-18T10:11:46.713Z,10.60
2023-10-18T10:14:22.029Z,10.63
2023-10-18T10:17:06.326Z,10.67
2023-10-18T10:19:44.043Z,10.69
2023-10-18T10:22:40.984Z,10.72
2023-10-18T10:25:28.358Z,10.74
2023-10-18T10:28:15.282Z,10.78
2023-10-18T10:30:45.076Z,10.80
2023-10-18T10:33:14.667Z,10.81
2023-10-18T10:35:45.910Z,10.84
2023-10-18T10:38:20.037Z,10.87
2023-10-18T10:41:11.855Z,10.90
2023-10-18T10:44:07.267Z,10.95
2023-10-18T10:46:40.548Z,11.01
2023-10-18T10:49:45.564Z,11.05
2023-10-18T10:52:19.241Z,11.11
2023-10-18T10:54:53.950Z,11.14
2023-10-18T10:57:22.414Z,11.18
2023-10-18T10:59:52.842Z,11.22
2023-10-18T11:02:30.558Z,11.26
2023-10-18T11:04:59.962Z,11.30
2023-10-18T11:07:28.510Z,11.33
2023-10-18T11:10:07.055Z,11.36
2023-10-18T11:12:33.974Z,11.38
2023-10-18T11:15:02.089Z,11.41
2023-10-18T11:17:30.044Z,11.43
2023-10-18T11:20:11.285Z,11.48
2023-10-18T11:22:42.057Z,11.52
2023-10-18T11:25:14.412Z,11.56
2023-10-18T11:27:41.224Z,11.59
2023-10-18T11:30:17.751Z,11.62
2023-10-18T11:32:47.393Z,11.67
2023-10-18T11:35:19.790Z,11.72
2023-10-18T11:37:48.327Z,11.76
2023-10-18T11:40:22.492Z,11.81
2023-10-18T11:43:05.485Z,11.84
2023-10-18T11:45:37.463Z,11.87
2023-10-18T11:48:10.327Z,11.90
2023-10-18T11:50:46.033Z,11.95
2023-10-18T11:53:14.624Z,11.99
2023-10-18T11:55:56.870Z,12.04
2023-10-18T11:58:24.585Z,12.09
2023-10-18T12:00:56.661Z,12.14
2023-10-18T12:03:24.244Z,12.19
2023-10-18T12:05:50.942Z,12.24
2023-10-18T12:08:18.277Z,12.27
2023-10-18T12:10:45.218Z,12.30
2023-10-18T12:13:14.362Z,12.34
2023-10-18T12:15:41.097Z,12.36
2023-10-18T12:18:10.129Z,12.36
2023-10-18T12:20:46.068Z,12.35
2023-10-18T12:23:16.639Z,12.36
2023-10-18T12:25:44.311Z,12.39
2023-10-18T12:28:18.475Z,12.42
2023-10-18T12:30:53.129Z,12.47
2023-10-18T12:33:24.421Z,12.52
2023-10-18T12:35:52.614Z,12.59
2023-10-18T12:38:32.313Z,12.66
2023-10-18T12:41:01.606Z,12.73
2023-10-18T12:43:32.853Z,12.78
2023-10-18T12:46:04.436Z,12.82
2023-10-18T12:48:32.052Z,12.86
2023-10-18T12:51:03.955Z,12.92
2023-10-18T12:53:30.523Z,12.96
2023-10-18T12:56:17.877Z,12.99
2023-10-18T12:59:11.717Z,13.01
2023-10-18T13:01:39.022Z,13.02
2023-10-18T13:04:09.052Z,13.04
2023-10-18T13:06:36.187Z,13.05
2023-10-18T13:09:15.717Z,13.04
2023-10-18T13:11:53.146Z,13.03
2023-10-18T13:14:25.137Z,13.01
2023-10-18T13:16:56.753Z,13.00
2023-10-18T13:19:28.466Z,12.99
2023-10-18T13:21:55.943Z,12.98
2023-10-18T13:24:22.894Z,12.95
2023-10-18T13:26:55.127Z,12.92
2023-10-18T13:29:22.261Z,12.90
2023-10-18T13:31:51.390Z,12.88
2023-10-18T13:34:22.211Z,12.86
2023-10-18T13:36:50.630Z,12.83
2023-10-18T13:39:18.677Z,12.81
2023-10-18T13:41:52.783Z,12.79
2023-10-18T13:44:22.967Z,12.77
2023-10-18T13:47:12.174Z,12.77
2023-10-18T13:49:42.373Z,12.75
2023-10-18T13:52:09.440Z,12.75
2023-10-18T13:54:37.128Z,12.76
2023-10-18T13:57:05.266Z,12.79
2023-10-18T13:59:34.289Z,12.80
2023-10-18T14:02:01.261Z,12.81
2023-10-18T14:04:29.528Z,12.81
2023-10-18T14:06:58.456Z,12.84
2023-10-18T14:09:25.493Z,12.85
2023-10-18T14:11:52.559Z,12.85
2023-10-18T14:14:20.515Z,12.84
2023-10-18T14:16:47.284Z,12.84
2023-10-18T14:19:19.361Z,12.93
2023-10-18T14:21:48.882Z,13.44
2023-10-18T14:24:17.945Z,14.39
2023-10-18T14:26:44.985Z,15.34
2023-10-18T14:29:12.362Z,15.84
2023-10-18T14:31:39.286Z,16.21
2023-10-18T14:34:06.083Z,16.39
2023-10-18T14:36:50.976Z,16.16
2023-10-18T14:39:35.727Z,15.73
2023-10-18T14:42:07.481Z,15.23
2023-10-18T14:44:34.207Z,14.75
2023-10-18T14:47:00.866Z,14.30
2023-10-18T14:49:28.882Z,13.94
2023-10-18T14:51:55.516Z,13.64
2023-10-18T14:54:22.349Z,13.38
2023-10-18T14:56:50.444Z,13.15
2023-10-18T14:59:17.125Z,12.93
2023-10-18T15:01:43.720Z,12.72
2023-10-18T15:04:10.289Z,12.54
2023-10-18T15:06:38.011Z,12.38
2023-10-18T15:09:04.758Z,12.24
2023-10-18T15:11:31.496Z,12.11
2023-10-18T15:13:59.305Z,11.98
2023-10-18T15:16:26.124Z,11.87
2023-10-18T15:18:52.793Z,11.77
2023-10-18T15:21:19.496Z,11.67
2023-10-18T15:23:46.294Z,11.56
2023-10-18T15:26:26.088Z,11.45
2023-10-18T15:28:52.835Z,11.34
2023-10-18T15:31:20.584Z,11.24
2023-10-18T15:33:47.244Z,11.14
2023-10-18T15:36:22.602Z,11.03
2023-10-18T15:38:51.198Z,10.91
2023-10-18T15:41:21.825Z,10.79
2023-10-18T15:43:55.165Z,10.66
2023-10-18T15:46:25.954Z,10.54
2023-10-18T15:48:53.986Z,10.41
2023-10-18T15:51:22.798Z,10.28
2023-10-18T15:53:57.122Z,10.15
2023-10-18T15:56:26.285Z,10.01
2023-10-18T15:58:56.258Z,9.89
2023-10-18T16:01:23.861Z,9.75
2023-10-18T16:03:51.962Z,9.62
2023-10-18T16:06:19.970Z,9.47
2023-10-18T16:08:47.596Z,9.33
2023-10-18T16:11:15.007Z,9.21
2023-10-18T16:13:41.944Z,9.09
2023-10-18T16:16:11.024Z,8.97
2023-10-18T16:18:39.935Z,8.86
2023-10-18T16:21:11.320Z,8.74
2023-10-18T16:23:40.604Z,8.64
2023-10-18T16:26:11.640Z,8.54
2023-10-18T16:28:39.164Z,8.44
2023-10-18T16:31:11.066Z,8.34
2023-10-18T16:33:40.867Z,8.25
2023-10-18T16:36:14.501Z,8.16
2023-10-18T16:38:41.704Z,8.07
2023-10-18T16:41:12.385Z,8.01
2023-10-18T16:43:39.363Z,7.94
2023-10-18T16:46:07.178Z,7.87
2023-10-18T16:48:35.700Z,7.80
2023-10-18T16:51:06.749Z,7.72
2023-10-18T16:53:38.310Z,7.64
2023-10-18T16:56:05.681Z,7.57
2023-10-18T16:58:32.871Z,7.49
2023-10-18T17:01:01.069Z,7.43
2023-10-18T17:03:30.664Z,7.37
2023-10-18T17:05:59.410Z,7.31
2023-10-18T17:08:27.147Z,7.25
2023-10-18T17:10:55.614Z,7.20
2023-10-18T17:13:26.901Z,7.13
2023-10-18T17:15:56.435Z,7.08
2023-10-18T17:18:23.945Z,7.02
2023-10-18T17:21:06.608Z,6.96
2023-10-18T17:23:43.190Z,6.89
2023-10-18T17:26:19.435Z,6.84
2023-10-18T17:28:50.370Z,6.78
2023-10-18T17:31:21.782Z,6.73
2023-10-18T17:33:53.349Z,6.67
2023-10-18T17:36:26.041Z,6.62
2023-10-18T17:38:52.860Z,6.57
2023-10-18T17:41:19.582Z,6.52
2023-10-18T17:43:47.600Z,6.48
2023-10-18T17:46:15.576Z,6.44
2023-10-18T17:48:42.312Z,6.40
2023-10-18T17:51:09.387Z,6.34
2023-10-18T17:53:37.114Z,6.28
2023-10-18T17:56:07.308Z,6.23
2023-10-18T17:58:42.115Z,6.18
2023-10-18T18:01:21.325Z,6.15
2023-10-18T18:03:50.208Z,6.10
2023-10-18T18:06:16.866Z,6.06
2023-10-18T18:08:43.637Z,6.02
2023-10-18T18:11:12.232Z,5.99
2023-10-18T18:13:42.690Z,5.97
2023-10-18T18:16:09.288Z,5.94
2023-10-18T18:18:35.941Z,5.91
2023-10-18T18:21:02.664Z,5.88
2023-10-18T18:23:29.436Z,5.85
2023-10-18T18:26:05.909Z,5.81
2023-10-18T18:28:33.510Z,5.79
2023-10-18T18:31:00.351Z,5.76
2023-10-18T18:33:28.209Z,5.73
2023-10-18T18:35:54.770Z,5.68
2023-10-18T18:38:21.629Z,5.64
2023-10-18T18:40:50.287Z,5.60
2023-10-18T18:43:17.342Z,5.55
2023-10-18T18:45:44.612Z,5.51
2023-10-18T18:48:14.666Z,5.47
2023-10-18T18:50:41.441Z,5.45
2023-10-18T18:53:08.181Z,5.44
2023-10-18T18:55:35.001Z,5.43
2023-10-18T18:58:01.701Z,5.43
2023-10-18T19:00:28.309Z,5.42
2023-10-18T19:02:57.109Z,5.40
2023-10-18T19:05:24.952Z,5.37
2023-10-18T19:07:55.267Z,5.35
2023-10-18T19:10:22.242Z,5.34
2023-10-18T19:12:51.552Z,5.32
2023-10-18T19:15:20.895Z,5.31
2023-10-18T19:17:50.058Z,5.29
2023-10-18T19:20:18.474Z,5.27
2023-10-18T19:22:50.099Z,5.24
2023-10-18T19:25:20.404Z,5.20
2023-10-18T19:27:49.097Z,5.18
2023-10-18T19:30:21.012Z,5.14
2023-10-18T19:32:48.756Z,5.11
2023-10-18T19:35:15.961Z,5.09
2023-10-18T19:37:43.714Z,5.07
2023-10-18T19:40:13.605Z,5.05
2023-10-18T19:42:42.049Z,5.01
2023-10-18T19:45:11.528Z,4.99
2023-10-18T19:47:38.498Z,4.97
2023-10-18T19:50:07.112Z,4.94
2023-10-18T19:52:33.696Z,4.91
2023-10-18T19:55:00.468Z,4.88
2023-10-18T19:57:27.233Z,4.85
2023-10-18T19:59:54.693Z,4.82
2023-10-18T20:02:21.462Z,4.81
2023-10-18T20:04:48.307Z,4.78
2023-10-18T20:07:18.053Z,4.75
2023-10-18T20:09:44.961Z,4.70
2023-10-18T20:12:12.204Z,4.67
2023-10-18T20:14:39.220Z,4.63
2023-10-18T20:17:06.054Z,4.61
2023-10-18T20:19:32.826Z,4.60
2023-10-18T20:21:59.580Z,4.58
2023-10-18T20:24:26.250Z,4.55
2023-10-18T20:26:52.895Z,4.51
2023-10-18T20:29:20.227Z,4.48
2023-10-18T20:31:47.186Z,4.46
2023-10-18T20:34:13.857Z,4.42
2023-10-18T20:36:40.881Z,4.38
2023-10-18T20:39:10.154Z,4.33
2023-10-18T20:41:40.208Z,4.27
2023-10-18T20:44:19.611Z,4.24
2023-10-18T20:46:50.888Z,4.22
2023-10-18T20:49:18.296Z,4.22
2023-10-18T20:51:57.560Z,4.21
2023-10-18T20:54:25.761Z,4.20
2023-10-18T20:57:10.850Z,4.18
2023-10-18T20:59:39.338Z,4.17
2023-10-18T21:02:15.278Z,4.14
2023-10-18T21:04:45.325Z,4.12
2023-10-18T21:07:12.420Z,4.08
2023-10-18T21:09:41.736Z,4.05
2023-10-18T21:12:08.360Z,4.03
2023-10-18T21:14:35.085Z,4.01
2023-10-18T21:17:01.693Z,3.99
2023-10-18T21:19:28.720Z,3.95
2023-10-18T21:21:55.751Z,3.93
2023-10-18T21:24:22.644Z,3.92
2023-10-18T21:26:49.504Z,3.91
2023-10-18T21:29:16.462Z,3.89
2023-10-18T21:31:43.924Z,3.84
2023-10-18T21:34:10.852Z,3.80
2023-10-18T21:36:37.557Z,3.78
2023-10-18T21:39:06.754Z,3.76
2023-10-18T21:41:35.385Z,3.73
2023-10-18T21:44:02.097Z,3.69
2023-10-18T21:46:28.687Z,3.66
2023-10-18T21:48:57.061Z,3.63
2023-10-18T21:51:24.378Z,3.61
2023-10-18T21:53:52.577Z,3.57
2023-10-18T21:56:19.384Z,3.55
2023-10-18T21:58:47.514Z,3.54
2023-10-18T22:01:33.835Z,3.50
2023-10-18T22:04:03.825Z,3.45
2023-10-18T22:06:30.425Z,3.43
2023-10-18T22:09:06.292Z,3.40
2023-10-18T22:11:35.655Z,3.36
2023-10-18T22:14:18.137Z,3.34
2023-10-18T22:16:56.976Z,3.33
2023-10-18T22:19:30.428Z,3.30
2023-10-18T22:21:57.477Z,3.29
2023-10-18T22:24:30.147Z,3.27
2023-10-18T22:26:57.724Z,3.25
2023-10-18T22:29:28.043Z,3.23
2023-10-18T22:32:00.018Z,3.19
2023-10-18T22:34:40.345Z,3.10
2023-10-18T22:37:06.868Z,3.03
2023-10-18T22:39:34.433Z,2.98
2023-10-18T22:42:08.985Z,2.92
2023-10-18T22:44:38.746Z,2.87
2023-10-18T22:47:07.399Z,2.85
2023-10-18T22:49:42.011Z,2.83
2023-10-18T22:52:23.333Z,2.77
2023-10-18T22:54:51.559Z,2.72
2023-10-18T22:57:35.822Z,2.68
2023-10-18T23:00:13.387Z,2.67
2023-10-18T23:02:43.508Z,2.68
2023-10-18T23:05:29.446Z,2.70
2023-10-18T23:07:57.983Z,2.69
2023-10-18T23:10:46.260Z,2.66
2023-10-18T23:13:32.972Z,2.66
2023-10-18T23:16:00.067Z,2.66
2023-10-18T23:18:33.768Z,2.66
2023-10-18T23:21:13.858Z,2.63
2023-10-18T23:23:55.206Z,2.61
2023-10-18T23:26:41.806Z,2.60
2023-10-18T23:29:15.062Z,2.58
2023-10-18T23:31:54.459Z,2.54
2023-10-18T23:34:24.083Z,2.52
2023-10-18T23:36:57.612Z,2.51
2023-10-18T23:39:28.653Z,2.50
2023-10-18T23:42:10.216Z,2.46
2023-10-18T23:44:55.172Z,2.38
2023-10-18T23:47:42.183Z,2.33
2023-10-18T23:50:29.884Z,2.30
2023-10-18T23:53:19.486Z,2.27
2023-10-18T23:55:55.239Z,2.25
2023-10-18T23:58:31.615Z,2.24
